x

Boston 16 Nm East Of Boston, Ma (44013) Wave Buoy

3:50am - Wed 22nd Oct 2014 All times are EDT. -4 hours from GMT.

  • Sig Wave height 3.9ft
  • Swell Direction
  • Peak Period 6s
  • Average Period 4s
  • Wind
    22mph, 25mph gusts
  • Sea Temp 57°f
  • Air Temp 53°f
  • Sea Pressure 1014.3mb
  • Boston 16 Nm East Of Boston, Ma
  • Boston 16 Nm East Of Boston, Ma

More Historic Weather Station data

Upgrade to MSW Pro to gain access to the past 30 days of data for over 8000 Wavebouys and Weather Stations around the globe.

Join Pro

Comparision Forecast

View Surf forecast
   
Wed 10/22 3:50am 4ft 6s 4s 22 25 mph 1014.3mb 57f 53f
2:50am 3.5ft 4s 4s 20 25 mph 1014.5mb 57f 53f
1:50am 3.5ft 4s 4s 22 27 mph 1014.4mb 57f 53f
12:50am 3ft 3s 4s 20 25 mph 1014.8mb 57f 53f
Tue 10/21 11:50pm 2.5ft 6s 4s 20 22 mph 1014.7mb 57f 54f
10:50pm 2.5ft 6s 4s 16 18 mph 1015mb 58f 55f
9:50pm 3ft 6s 5s 4
mph
1014.7mb 57f 57f
8:50pm 2.5ft 6s 5s 7
mph
1014mb 57f 57f
7:50pm 2.5ft 5s 4s 4 7 mph 1013.7mb 57f 57f
6:50pm 2.5ft 6s 4s 4 7 mph 1013.7mb 57f 57f
5:50pm 2.5ft 6s 4s 7 9 mph 1013.3mb 57f 57f
4:50pm 2.5ft 4s 4s 9 11 mph 1013.1mb 57f 58f
3:50pm 2ft 4s 4s 9
mph
1013.2mb 57f 56f
2:50pm 2.5ft 4s 4s 11 13 mph 1013.6mb 57f 57f
1:50pm 2.5ft 4s 4s 13 16 mph 1013.5mb 57f 58f
12:50pm 2.5ft 4s 4s 18 20 mph 1013.7mb 57f 58f
11:50am 2ft 4s 3s 13 18 mph 1014.4mb 57f 58f
10:50am 1.6ft 3s 3s 13 16 mph 1014.7mb 57f 58f
9:50am 1.6ft 3s 3s 13
mph
1015.1mb 57f 57f
8:50am 1.3ft 3s 3s 13 16 mph 1015.2mb 57f 57f
7:50am 1ft 3s 3s 13 16 mph 1015mb 57f 57f
6:50am 1ft 10s 4s 16 18 mph 1014.9mb 57f 56f
5:50am 1ft 9s 3s 7
mph
1015.4mb 57f 56f
4:50am 1ft 10s 5s 11
mph
1015.6mb 57f 56f
3:50am 1ft 10s 5s 11 13 mph 1015.6mb 57f 56f
2:50am 1ft 10s 5s 11 13 mph 1016.1mb 57f 55f
1:50am 1.3ft 11s 4s 9 11 mph 1016.4mb 57f 55f
12:50am 1.3ft 11s 4s 9
mph
1016.5mb 57f 53f
Mon 10/20 11:50pm 1.3ft 11s 4s 13
mph
1016.3mb 57f 53f
10:50pm 1.3ft 11s 3s 16 18 mph 1016.4mb 57f 53f
9:50pm 1.3ft 11s 4s 13 16 mph 1016.3mb 57f 53f
8:50pm 1.3ft 11s 4s 13 16 mph 1016.3mb 57f 53f
7:50pm 1.3ft 11s 4s 16
mph
1015.7mb 57f 53f
6:50pm 1.6ft 11s 4s 11 13 mph 1015.6mb 57f 54f
5:50pm 1.6ft 11s 3s 13 18 mph 1015.3mb 57f 55f
4:50pm 1.6ft 11s 3s 16 20 mph 1015.1mb 57f 55f
3:50pm 1.6ft 11s 4s 11 16 mph 1015.1mb 57f 55f
2:50pm 1.6ft 11s 4s 13 16 mph 1015.3mb 57f 53f
1:50pm 2ft 11s 4s 11 13 mph 1015.7mb 57f 51f
12:50pm 2ft 11s 4s 16 22 mph 1016.3mb 57f 49f
11:50am 2ft 11s 4s 16 20 mph 1017.5mb 57f 47f
10:50am 2ft 11s 4s 13 18 mph 1017.5mb 57f 45f
9:50am 2.5ft 12s 4s 16 20 mph 1017.8mb 57f 44f
8:50am 2.5ft 11s 4s 16 20 mph 1017.9mb 56f 43f
7:50am 2.5ft 13s 4s 16 20 mph 1017.2mb 56f 43f
6:50am 3ft 11s 4s 18 20 mph 1016.7mb 56f 42f
5:50am 3.5ft 4s 4s 18 22 mph 1016.1mb 56f 43f
4:50am 4.5ft 4s 4s 25 27 mph 1015.2mb 56f 43f
3:50am 4.5ft 4s 4s 27 34 mph 1014.9mb 56f 43f
2:50am  -   -   -  27 31 mph 1014.6mb 56f 44f
1:50am 4.5ft 4s 4s 25 31 mph 1014.5mb 57f 44f
Sun 10/19 11:50pm 4.5ft 11s 4s 25 31 mph 1013.3mb 57f 46f
10:50pm 3.5ft 4s 4s 27 31 mph 1012.9mb 57f 46f
9:50pm 3.5ft 4s 4s 25 34 mph 1012.5mb 57f 47f
8:50pm 4.5ft 4s 4s 25 29 mph 1012.2mb 57f 48f
7:50pm 4.5ft 5s 4s 27 31 mph 1011.6mb 57f 49f
6:50pm 4ft 5s 4s 27 31 mph 1010.7mb 57f 49f
5:50pm 4ft 4s 4s 25 31 mph 1009.8mb 57f 51f
4:50pm 3.5ft 12s 4s 22 29 mph 1009.3mb 57f 51f
3:50pm 4ft 4s 4s 20 25 mph 1009mb 57f 51f
2:50pm 3.5ft 13s 4s 22 27 mph 1008.2mb 57f 52f
1:50pm 3.5ft 13s 4s 16 22 mph 1007.8mb 58f 51f
12:50pm 3.5ft 13s 4s 22 27 mph 1007mb 58f 51f
11:50am 3.5ft 12s 5s 16 25 mph 1008.3mb 58f 51f
10:50am 3.5ft 14s 4s 18 25 mph 1007.9mb 58f 50f
9:50am 4ft 13s 4s 25 31 mph 1007.6mb 58f 50f
8:50am 4ft 13s 4s 22 27 mph 1007.3mb 58f 50f
7:50am 4ft 14s 5s 22 27 mph 1006.7mb 58f 51f
6:50am 4ft 13s 4s 22 27 mph 1005.5mb 58f 52f
5:50am 3.5ft 15s 5s 25 27 mph 1004.3mb 58f 54f
4:50am 3.5ft 16s 5s 20 25 mph 1003.7mb 58f 55f
3:50am 3.5ft 10s 5s 18 22 mph 1002.9mb 58f 56f
2:50am 3.5ft 16s 6s 16 20 mph 1002.9mb 59f 57f
1:50am 3.5ft 17s 5s 16 20 mph 1002.6mb 59f 57f
12:50am 3.5ft 9s 5s 16 20 mph 1002.1mb 59f 57f
Sat 10/18 11:50pm 3ft 9s 6s 18 22 mph 1001.8mb 59f 58f
10:50pm 3ft 10s 5s 13 18 mph 1001.3mb 59f 59f
9:50pm 3.5ft 10s 5s 16 18 mph 1001.2mb 59f 60f
8:50pm 3.5ft 9s 6s 9 13 mph 1001mb 59f 60f
7:50pm 3ft 10s 7s 13 16 mph 1000mb 59f 61f
6:50pm 3ft 10s 6s 11 13 mph 999.5mb 59f 61f
5:50pm 3ft 10s 6s 9
mph
999.1mb 59f 61f
4:50pm 3.5ft 10s 5s 16 20 mph 998.8mb 59f 62f
3:50pm 3.5ft 10s 5s 13 18 mph 998.7mb 59f 63f
2:50pm 3.5ft 10s 5s 11
mph
998.9mb 59f 64f
1:50pm 3.5ft 11s 5s 18 20 mph 999.3mb 59f 65f
12:50pm 3.5ft 10s 6s 13 16 mph 1000.3mb 60f 64f
11:50am 3.5ft 10s 6s 9 11 mph 1001.2mb 59f 63f
10:50am 3.5ft 10s 6s 9 11 mph 1001.8mb 59f 62f
9:50am 3.5ft 10s 6s 11 16 mph 1002.2mb 59f 61f
8:50am 3.5ft 10s 6s 11 13 mph 1002.7mb 59f 60f